createdAt,value
2022-08-28T00:00:31.453Z,48.10
2022-08-28T00:03:08.372Z,48.37
2022-08-28T00:05:39.856Z,48.29
2022-08-28T00:08:10.149Z,48.33
2022-08-28T00:10:40.199Z,48.38
2022-08-28T00:13:13.842Z,48.42
2022-08-28T00:15:41.938Z,48.58
2022-08-28T00:18:09.917Z,48.68
2022-08-28T00:20:38.905Z,48.62
2022-08-28T00:23:07.209Z,48.91
2022-08-28T00:25:35.916Z,48.93
2022-08-28T00:28:08.770Z,48.99
2022-08-28T00:30:43.758Z,48.95
2022-08-28T00:33:16.507Z,48.83
2022-08-28T00:35:44.643Z,48.66
2022-08-28T00:38:13.437Z,49.24
2022-08-28T00:40:44.759Z,48.93
2022-08-28T00:43:27.039Z,48.84
2022-08-28T00:45:54.835Z,49.36
2022-08-28T00:48:22.601Z,49.34
2022-08-28T00:51:09.472Z,49.39
2022-08-28T00:53:37.711Z,49.74
2022-08-28T00:56:12.298Z,49.72
2022-08-28T00:58:45.174Z,49.88
2022-08-28T01:01:14.922Z,49.81
2022-08-28T01:03:43.328Z,49.77
2022-08-28T01:06:14.879Z,50.21
2022-08-28T01:08:50.684Z,50.46
2022-08-28T01:11:20.451Z,50.13
2022-08-28T01:13:49.237Z,50.52
2022-08-28T01:16:19.544Z,50.18
2022-08-28T01:18:49.369Z,50.49
2022-08-28T01:21:37.605Z,50.83
2022-08-28T01:24:10.402Z,50.91
2022-08-28T01:26:38.579Z,50.89
2022-08-28T01:29:08.697Z,50.88
2022-08-28T01:31:38.133Z,51.22
2022-08-28T01:34:07.445Z,50.96
2022-08-28T01:36:35.591Z,50.65
2022-08-28T01:39:12.778Z,50.79
2022-08-28T01:41:42.736Z,50.71
2022-08-28T01:44:10.606Z,51.18
2022-08-28T01:46:41.962Z,50.88
2022-08-28T01:49:12.048Z,50.73
2022-08-28T01:51:41.440Z,50.87
2022-08-28T01:54:10.845Z,51.06
2022-08-28T01:56:42.406Z,51.22
2022-08-28T01:59:12.977Z,51.30
2022-08-28T02:01:42.690Z,51.33
2022-08-28T02:04:11.951Z,51.33
2022-08-28T02:06:41.340Z,51.44
2022-08-28T02:09:13.517Z,51.43
2022-08-28T02:11:46.587Z,51.46
2022-08-28T02:14:15.990Z,51.79
2022-08-28T02:16:44.140Z,51.68
2022-08-28T02:19:12.341Z,51.88
2022-08-28T02:21:40.861Z,51.98
2022-08-28T02:24:09.152Z,52.03
2022-08-28T02:26:38.373Z,52.17
2022-08-28T02:29:06.766Z,52.29
2022-08-28T02:31:34.592Z,52.57
2022-08-28T02:34:02.396Z,52.50
2022-08-28T02:36:30.913Z,52.54
2022-08-28T02:38:59.789Z,52.63
2022-08-28T02:41:27.929Z,52.60
2022-08-28T02:43:55.696Z,52.73
2022-08-28T02:46:23.562Z,52.77
2022-08-28T02:48:51.429Z,52.94
2022-08-28T02:51:20.218Z,53.22
2022-08-28T02:53:48.126Z,53.21
2022-08-28T02:56:16.778Z,53.17
2022-08-28T02:58:44.804Z,53.26
2022-08-28T03:01:15.070Z,53.40
2022-08-28T03:03:43.477Z,53.50
2022-08-28T03:06:12.756Z,53.49
2022-08-28T03:08:44.840Z,53.82
2022-08-28T03:11:13.102Z,53.83
2022-08-28T03:13:42.531Z,54.07
2022-08-28T03:16:10.570Z,54.30
2022-08-28T03:18:38.987Z,54.31
2022-08-28T03:21:07.231Z,54.46
2022-08-28T03:23:35.945Z,54.44
2022-08-28T03:26:07.631Z,54.71
2022-08-28T03:28:39.773Z,54.76
2022-08-28T03:31:09.458Z,54.94
2022-08-28T03:33:38.250Z,54.87
2022-08-28T03:36:13.020Z,55.00
2022-08-28T03:38:42.054Z,55.54
2022-08-28T03:41:11.893Z,55.75
2022-08-28T03:43:40.213Z,55.91
2022-08-28T03:46:12.114Z,55.83
2022-08-28T03:48:42.194Z,55.85
2022-08-28T03:51:16.489Z,55.91
2022-08-28T03:53:46.258Z,55.78
2022-08-28T03:56:19.259Z,56.03
2022-08-28T03:58:47.921Z,56.32
2022-08-28T04:01:15.812Z,56.37
2022-08-28T04:03:44.494Z,56.60
2022-08-28T04:06:13.097Z,56.47
2022-08-28T04:08:40.981Z,56.77
2022-08-28T04:11:10.115Z,56.77
2022-08-28T04:13:42.137Z,56.88
2022-08-28T04:16:13.038Z,57.10
2022-08-28T04:18:43.152Z,57.29
2022-08-28T04:21:15.009Z,57.31
2022-08-28T04:23:45.128Z,57.19
2022-08-28T04:26:16.683Z,57.38
2022-08-28T04:28:45.937Z,57.46
2022-08-28T04:31:15.054Z,57.46
2022-08-28T04:33:43.306Z,57.61
2022-08-28T04:36:17.373Z,57.96
2022-08-28T04:38:45.703Z,58.13
2022-08-28T04:41:15.651Z,58.16
2022-08-28T04:43:44.627Z,58.34
2022-08-28T04:46:14.936Z,58.44
2022-08-28T04:48:43.435Z,58.40
2022-08-28T04:51:14.229Z,58.44
2022-08-28T04:53:42.927Z,58.60
2022-08-28T04:56:13.882Z,58.85
2022-08-28T04:58:43.521Z,58.99
2022-08-28T05:01:21.180Z,58.58
2022-08-28T05:03:54.959Z,59.09
2022-08-28T05:06:26.764Z,58.62
2022-08-28T05:09:00.812Z,58.30
2022-08-28T05:11:34.373Z,58.24
2022-08-28T05:14:05.054Z,58.51
2022-08-28T05:16:39.754Z,58.21
2022-08-28T05:19:07.746Z,58.19
2022-08-28T05:21:35.528Z,58.18
2022-08-28T05:24:04.796Z,57.80
2022-08-28T05:26:33.950Z,57.82
2022-08-28T05:29:04.413Z,57.92
2022-08-28T05:31:34.395Z,58.02
2022-08-28T05:34:03.494Z,58.24
2022-08-28T05:36:36.551Z,58.19
2022-08-28T05:39:07.538Z,57.98
2022-08-28T05:41:36.852Z,58.15
2022-08-28T05:44:08.123Z,58.04
2022-08-28T05:46:37.894Z,57.94
2022-08-28T05:49:10.092Z,57.99
2022-08-28T05:51:41.063Z,58.06
2022-08-28T05:54:09.797Z,58.24
2022-08-28T05:56:40.532Z,58.16
2022-08-28T05:59:10.275Z,57.63
2022-08-28T06:01:41.764Z,57.87
2022-08-28T06:04:15.947Z,57.74
2022-08-28T06:06:44.807Z,57.79
2022-08-28T06:09:16.072Z,57.94
2022-08-28T06:11:46.099Z,57.94
2022-08-28T06:14:18.068Z,58.16
2022-08-28T06:16:53.093Z,58.04
2022-08-28T06:19:23.198Z,58.00
2022-08-28T06:21:55.424Z,58.25
2022-08-28T06:24:24.579Z,58.30
2022-08-28T06:26:52.749Z,58.40
2022-08-28T06:29:24.345Z,58.38
2022-08-28T06:31:56.010Z,58.55
2022-08-28T06:34:24.545Z,58.35
2022-08-28T06:36:54.173Z,58.63
2022-08-28T06:39:23.321Z,58.45
2022-08-28T06:41:51.177Z,58.14
2022-08-28T06:44:20.885Z,58.07
2022-08-28T06:46:51.676Z,57.78
2022-08-28T06:49:20.162Z,57.82
2022-08-28T06:51:48.049Z,57.99
2022-08-28T06:54:22.208Z,57.78
2022-08-28T06:56:52.434Z,58.04
2022-08-28T06:59:20.574Z,57.44
2022-08-28T07:01:49.013Z,57.29
2022-08-28T07:04:17.069Z,57.01
2022-08-28T07:06:47.058Z,57.08
2022-08-28T07:09:16.282Z,57.08
2022-08-28T07:11:49.034Z,56.74
2022-08-28T07:14:17.287Z,56.40
2022-08-28T07:16:45.136Z,56.16
2022-08-28T07:19:13.833Z,56.00
2022-08-28T07:21:44.650Z,56.64
2022-08-28T07:28:18.175Z,55.61
2022-08-28T07:30:46.261Z,55.79
2022-08-28T07:33:14.459Z,55.79
2022-08-28T07:35:45.225Z,55.47
2022-08-28T07:38:13.071Z,54.92
2022-08-28T07:40:41.080Z,54.85
2022-08-28T07:43:27.556Z,55.33
2022-08-28T07:46:05.407Z,55.15
2022-08-28T07:48:35.438Z,54.52
2022-08-28T07:51:05.160Z,54.43
2022-08-28T07:53:36.496Z,54.36
2022-08-28T07:56:05.347Z,53.94
2022-08-28T07:58:33.742Z,54.08
2022-08-28T08:01:01.603Z,53.87
2022-08-28T08:03:31.560Z,53.99
2022-08-28T08:06:03.030Z,53.08
2022-08-28T08:08:32.123Z,53.30
2022-08-28T08:11:10.711Z,52.97
2022-08-28T08:13:39.588Z,52.82
2022-08-28T08:16:12.690Z,52.21
2022-08-28T08:18:42.554Z,52.14
2022-08-28T08:21:14.073Z,52.31
2022-08-28T08:23:42.231Z,51.84
2022-08-28T08:26:13.900Z,51.70
2022-08-28T08:28:42.571Z,51.56
2022-08-28T08:31:14.464Z,50.60
2022-08-28T08:33:44.882Z,50.00
2022-08-28T08:36:14.808Z,50.03
2022-08-28T08:38:42.767Z,50.07
2022-08-28T08:41:21.931Z,49.21
2022-08-28T08:43:57.312Z,48.51
2022-08-28T08:46:46.247Z,48.57
2022-08-28T08:49:19.237Z,47.52
2022-08-28T08:52:11.484Z,48.35
2022-08-28T08:54:45.110Z,47.40
2022-08-28T08:57:15.166Z,47.11
2022-08-28T08:59:43.010Z,46.86
2022-08-28T09:02:18.448Z,46.58
2022-08-28T09:05:04.338Z,46.64
2022-08-28T09:07:52.653Z,45.40
2022-08-28T09:10:21.184Z,44.83
2022-08-28T09:13:06.898Z,42.18
2022-08-28T09:15:40.160Z,39.91
2022-08-28T09:18:20.938Z,36.78
2022-08-28T09:20:55.576Z,35.44
2022-08-28T09:23:24.704Z,33.40
2022-08-28T09:26:01.817Z,32.92
2022-08-28T09:28:35.865Z,33.05
2022-08-28T09:31:08.934Z,30.40
2022-08-28T09:33:42.256Z,29.53
2022-08-28T09:36:33.631Z,28.73
2022-08-28T09:39:07.485Z,26.93
2022-08-28T09:42:00.933Z,25.98
2022-08-28T09:44:28.815Z,24.40
2022-08-28T09:46:56.664Z,24.12
2022-08-28T09:49:30.029Z,24.03
2022-08-28T09:52:02.136Z,22.62
2022-08-28T09:54:35.481Z,22.63
2022-08-28T09:57:04.042Z,22.86
2022-08-28T09:59:31.807Z,22.19
2022-08-28T10:02:31.657Z,21.45
2022-08-28T10:05:16.658Z,21.32
2022-08-28T10:07:58.123Z,21.52
2022-08-28T10:10:41.815Z,19.84
2022-08-28T10:13:17.632Z,19.95
2022-08-28T10:16:24.654Z,19.41
2022-08-28T10:19:02.694Z,19.45
2022-08-28T10:21:37.157Z,19.69
2022-08-28T10:24:07.655Z,18.47
2022-08-28T10:26:55.543Z,18.73
2022-08-28T10:29:30.076Z,19.21
2022-08-28T10:32:19.813Z,18.59
2022-08-28T10:34:50.469Z,18.63
2022-08-28T10:37:52.597Z,18.52
2022-08-28T10:40:32.850Z,19.12
2022-08-28T10:43:11.535Z,18.88
2022-08-28T10:45:40.306Z,18.08
2022-08-28T10:48:15.534Z,18.10
2022-08-28T10:50:55.225Z,17.28
2022-08-28T10:53:29.927Z,17.26
2022-08-28T10:56:07.547Z,18.94
2022-08-28T10:58:39.480Z,19.69
2022-08-28T11:01:11.993Z,20.00
2022-08-28T11:03:46.585Z,21.50
2022-08-28T11:06:21.229Z,22.91
2022-08-28T11:08:59.626Z,23.88
2022-08-28T11:11:45.080Z,25.03
2022-08-28T11:14:25.190Z,26.08
2022-08-28T11:16:56.405Z,26.05
2022-08-28T11:19:33.589Z,27.06
2022-08-28T11:22:11.004Z,27.97
2022-08-28T11:24:44.163Z,27.96
2022-08-28T11:27:27.489Z,28.76
2022-08-28T11:30:11.038Z,28.62
2022-08-28T11:32:56.983Z,29.43
2022-08-28T11:35:30.726Z,30.53
2022-08-28T11:37:58.636Z,29.94
2022-08-28T11:40:32.281Z,29.81
2022-08-28T11:43:16.165Z,29.91
2022-08-28T11:45:50.645Z,30.94
2022-08-28T11:48:33.738Z,31.87
2022-08-28T11:51:31.340Z,33.38
2022-08-28T11:54:32.275Z,32.65
2022-08-28T11:57:20.239Z,33.03
2022-08-28T12:00:17.536Z,31.33
2022-08-28T12:02:49.907Z,30.96
2022-08-28T12:05:17.823Z,31.08
2022-08-28T12:07:48.546Z,31.48
2022-08-28T12:10:28.153Z,31.44
2022-08-28T12:13:02.446Z,31.92
2022-08-28T12:15:30.320Z,32.29
2022-08-28T12:18:04.403Z,32.41
2022-08-28T12:20:41.036Z,33.33
2022-08-28T12:23:28.655Z,33.59
2022-08-28T12:26:05.746Z,33.59
2022-08-28T12:28:46.118Z,33.89
2022-08-28T12:31:48.849Z,34.39
2022-08-28T12:34:31.728Z,34.26
2022-08-28T12:37:02.755Z,35.07
2022-08-28T12:39:32.624Z,34.55
2022-08-28T12:42:03.550Z,35.53
2022-08-28T12:44:33.583Z,35.51
2022-08-28T12:47:01.461Z,35.87
2022-08-28T12:49:36.035Z,37.23
2022-08-28T12:52:22.870Z,37.48
2022-08-28T12:54:55.264Z,37.55
2022-08-28T12:57:25.491Z,37.04
2022-08-28T12:59:56.006Z,37.03
2022-08-28T13:02:36.116Z,37.23
2022-08-28T13:05:29.194Z,37.57
2022-08-28T13:08:00.096Z,36.86
2022-08-28T13:10:33.426Z,36.82
2022-08-28T13:13:06.567Z,36.69
2022-08-28T13:15:55.306Z,36.74
2022-08-28T13:19:08.690Z,36.52
2022-08-28T13:21:52.171Z,36.41
2022-08-28T13:24:27.533Z,36.59
2022-08-28T13:27:04.025Z,36.27
2022-08-28T13:29:32.432Z,36.75
2022-08-28T13:32:07.769Z,37.06
2022-08-28T13:34:37.870Z,37.46
2022-08-28T13:37:14.608Z,37.63
2022-08-28T13:39:48.015Z,37.42
2022-08-28T13:42:18.061Z,37.35
2022-08-28T13:44:56.174Z,37.50
2022-08-28T13:47:24.030Z,37.19
2022-08-28T13:49:51.871Z,37.63
2022-08-28T13:52:19.647Z,37.22
2022-08-28T13:54:47.845Z,38.13
2022-08-28T13:57:15.681Z,37.40
2022-08-28T13:59:43.634Z,37.59
2022-08-28T14:02:32.746Z,37.83
2022-08-28T14:05:00.746Z,38.13
2022-08-28T14:07:29.461Z,36.98
2022-08-28T14:09:57.514Z,36.79
2022-08-28T14:12:32.796Z,37.18
2022-08-28T14:15:02.453Z,36.80
2022-08-28T14:17:30.373Z,36.56
2022-08-28T14:20:00.381Z,36.71
2022-08-28T14:22:28.681Z,36.62
2022-08-28T14:24:56.921Z,36.63
2022-08-28T14:27:24.669Z,36.66
2022-08-28T14:29:53.631Z,36.47
2022-08-28T14:32:21.427Z,37.10
2022-08-28T14:34:50.805Z,37.58
2022-08-28T14:37:19.385Z,38.01
2022-08-28T14:39:48.072Z,37.80
2022-08-28T14:42:16.041Z,37.85
2022-08-28T14:44:43.869Z,38.57
2022-08-28T14:47:12.358Z,38.66
2022-08-28T14:49:40.823Z,38.10
2022-08-28T14:52:08.649Z,38.15
2022-08-28T14:54:37.344Z,38.23
2022-08-28T14:57:05.471Z,38.13
2022-08-28T14:59:34.105Z,38.56
2022-08-28T15:02:02.196Z,38.20
2022-08-28T15:04:37.819Z,38.11
2022-08-28T15:07:10.546Z,38.31
2022-08-28T15:09:41.187Z,37.86
2022-08-28T15:12:09.344Z,37.84
2022-08-28T15:14:37.661Z,37.61
2022-08-28T15:17:05.984Z,37.05
2022-08-28T15:19:34.427Z,36.64
2022-08-28T15:22:04.242Z,37.10
2022-08-28T15:24:34.439Z,37.17
2022-08-28T15:27:02.793Z,37.45
2022-08-28T15:29:30.618Z,37.82
2022-08-28T15:31:59.134Z,38.00
2022-08-28T15:34:28.641Z,37.83
2022-08-28T15:36:58.030Z,38.02
2022-08-28T15:39:46.661Z,37.62
2022-08-28T15:42:15.455Z,37.95
2022-08-28T15:44:44.164Z,37.79
2022-08-28T15:47:13.836Z,37.73
2022-08-28T15:49:47.511Z,38.64
2022-08-28T15:52:20.039Z,38.22
2022-08-28T15:54:49.826Z,38.44
2022-08-28T15:57:17.993Z,38.67
2022-08-28T15:59:49.923Z,38.98
2022-08-28T16:02:21.980Z,39.14
2022-08-28T16:04:50.755Z,39.53
2022-08-28T16:07:20.151Z,39.49
2022-08-28T16:09:49.030Z,39.81
2022-08-28T16:12:17.424Z,39.94
2022-08-28T16:14:45.368Z,39.84
2022-08-28T16:17:13.384Z,39.92
2022-08-28T16:19:43.114Z,40.16
2022-08-28T16:22:12.571Z,40.30
2022-08-28T16:24:40.333Z,40.02
2022-08-28T16:27:13.115Z,40.49
2022-08-28T16:29:46.653Z,41.59
2022-08-28T16:32:17.764Z,42.29
2022-08-28T16:34:45.837Z,42.83
2022-08-28T16:37:16.635Z,43.35
2022-08-28T16:39:48.875Z,43.83
2022-08-28T16:42:17.504Z,44.12
2022-08-28T16:44:45.843Z,44.31
2022-08-28T16:47:14.073Z,44.61
2022-08-28T16:49:41.895Z,44.70
2022-08-28T16:52:09.654Z,45.05
2022-08-28T16:54:37.691Z,45.39
2022-08-28T16:57:14.011Z,46.14
2022-08-28T16:59:41.773Z,46.32
2022-08-28T17:02:10.006Z,46.74
2022-08-28T17:04:41.524Z,47.00
2022-08-28T17:07:09.594Z,47.08
2022-08-28T17:09:37.436Z,47.51
2022-08-28T17:12:05.576Z,47.78
2022-08-28T17:14:34.324Z,48.09
2022-08-28T17:17:02.102Z,48.27
2022-08-28T17:19:30.378Z,48.77
2022-08-28T17:22:16.996Z,49.51
2022-08-28T17:24:44.753Z,47.97
2022-08-28T17:27:16.869Z,46.13
2022-08-28T17:29:50.731Z,45.97
2022-08-28T17:32:18.854Z,46.04
2022-08-28T17:34:46.954Z,46.49
2022-08-28T17:37:15.863Z,46.83
2022-08-28T17:39:43.737Z,47.76
2022-08-28T17:42:11.609Z,48.22
2022-08-28T17:44:39.557Z,49.29
2022-08-28T17:47:07.313Z,50.47
2022-08-28T17:49:35.345Z,51.22
2022-08-28T17:52:03.957Z,51.77
2022-08-28T17:54:32.295Z,52.35
2022-08-28T17:57:00.268Z,53.13
2022-08-28T17:59:28.072Z,53.40
2022-08-28T18:01:56.083Z,53.80
2022-08-28T18:04:24.819Z,53.82
2022-08-28T18:06:54.738Z,53.96
2022-08-28T18:09:25.008Z,54.05
2022-08-28T18:11:52.909Z,54.19
2022-08-28T18:14:21.628Z,53.80
2022-08-28T18:16:50.219Z,54.06
2022-08-28T18:19:18.217Z,54.11
2022-08-28T18:21:47.222Z,54.08
2022-08-28T18:24:15.119Z,54.05
2022-08-28T18:26:43.864Z,54.31
2022-08-28T18:29:13.729Z,54.94
2022-08-28T18:31:42.552Z,55.05
2022-08-28T18:34:11.001Z,55.36
2022-08-28T18:36:43.604Z,55.81
2022-08-28T18:39:11.576Z,55.95
2022-08-28T18:41:43.822Z,56.19
2022-08-28T18:44:14.402Z,56.68
2022-08-28T18:46:43.319Z,56.83
2022-08-28T18:49:12.126Z,57.31
2022-08-28T18:51:41.977Z,57.51
2022-08-28T18:54:13.880Z,58.19
2022-08-28T18:56:46.108Z,58.01
2022-08-28T18:59:16.190Z,58.05
2022-08-28T19:01:44.206Z,57.92
2022-08-28T19:04:12.152Z,58.11
2022-08-28T19:06:40.751Z,58.31
2022-08-28T19:09:08.766Z,58.21
2022-08-28T19:11:39.618Z,58.29
2022-08-28T19:14:07.758Z,58.59
2022-08-28T19:16:35.622Z,58.76
2022-08-28T19:19:03.900Z,59.15
2022-08-28T19:21:32.896Z,59.45
2022-08-28T19:24:00.929Z,59.77
2022-08-28T19:26:28.798Z,59.85
2022-08-28T19:28:57.491Z,60.13
2022-08-28T19:31:27.262Z,60.37
2022-08-28T19:33:56.178Z,60.53
2022-08-28T19:36:27.230Z,60.55
2022-08-28T19:38:55.178Z,60.41
2022-08-28T19:41:23.141Z,60.37
2022-08-28T19:43:51.382Z,60.94
2022-08-28T19:46:20.301Z,60.97
2022-08-28T19:48:50.394Z,61.15
2022-08-28T19:51:22.654Z,61.29
2022-08-28T19:53:57.793Z,61.13
2022-08-28T19:56:28.831Z,61.16
2022-08-28T19:58:59.419Z,61.07
2022-08-28T20:01:30.263Z,61.37
2022-08-28T20:03:59.846Z,61.41
2022-08-28T20:06:31.099Z,61.91
2022-08-28T20:09:02.664Z,61.89
2022-08-28T20:11:31.010Z,61.51
2022-08-28T20:14:04.416Z,61.35
2022-08-28T20:16:36.692Z,61.32
2022-08-28T20:19:07.836Z,61.43
2022-08-28T20:21:38.425Z,61.38
2022-08-28T20:24:11.034Z,61.37
2022-08-28T20:26:39.310Z,61.57
2022-08-28T20:29:08.680Z,61.62
2022-08-28T20:31:42.222Z,62.28
2022-08-28T20:34:11.722Z,62.45
2022-08-28T20:36:39.880Z,62.58
2022-08-28T20:39:09.521Z,62.27
2022-08-28T20:41:40.168Z,62.06
2022-08-28T20:44:10.282Z,62.33
2022-08-28T20:46:41.330Z,62.40
2022-08-28T20:49:14.455Z,62.25
2022-08-28T20:51:53.835Z,62.49
2022-08-28T20:54:34.664Z,62.75
2022-08-28T20:57:08.784Z,62.64
2022-08-28T20:59:39.983Z,62.69
2022-08-28T21:02:24.408Z,62.94
2022-08-28T21:04:53.428Z,62.92
2022-08-28T21:07:24.073Z,62.59
2022-08-28T21:10:04.848Z,62.37
2022-08-28T21:12:39.242Z,62.36
2022-08-28T21:15:10.935Z,62.11
2022-08-28T21:17:40.265Z,62.08
2022-08-28T21:20:12.206Z,61.76
2022-08-28T21:22:41.232Z,61.88
2022-08-28T21:25:10.757Z,61.95
2022-08-28T21:27:39.684Z,62.01
2022-08-28T21:30:09.682Z,61.97
2022-08-28T21:32:37.647Z,62.26
2022-08-28T21:35:07.463Z,62.22
2022-08-28T21:37:35.605Z,62.24
2022-08-28T21:40:06.599Z,62.07
2022-08-28T21:42:35.838Z,62.05
2022-08-28T21:45:09.835Z,62.02
2022-08-28T21:47:41.737Z,62.20
2022-08-28T21:50:10.893Z,62.25
2022-08-28T21:52:40.228Z,62.46
2022-08-28T21:55:12.273Z,62.67
2022-08-28T21:57:40.768Z,62.87
2022-08-28T22:00:21.550Z,62.84
2022-08-28T22:02:50.442Z,63.20
2022-08-28T22:05:18.606Z,63.30
2022-08-28T22:07:46.990Z,63.52
2022-08-28T22:10:15.134Z,63.50
2022-08-28T22:12:43.038Z,63.60
2022-08-28T22:15:11.042Z,63.75
2022-08-28T22:17:38.885Z,63.88
2022-08-28T22:20:07.394Z,63.77
2022-08-28T22:22:53.904Z,64.03
2022-08-28T22:25:21.858Z,64.27
2022-08-28T22:27:49.696Z,64.63
2022-08-28T22:30:17.827Z,64.74
2022-08-28T22:32:46.110Z,64.95
2022-08-28T22:35:14.138Z,65.22
2022-08-28T22:37:41.990Z,65.80
2022-08-28T22:40:13.521Z,66.10
2022-08-28T22:42:42.637Z,66.11
2022-08-28T22:45:10.933Z,66.15
2022-08-28T22:47:39.777Z,66.17
2022-08-28T22:50:08.518Z,66.35
2022-08-28T22:52:37.362Z,66.59
2022-08-28T22:55:09.257Z,66.67
2022-08-28T22:57:37.069Z,66.67
2022-08-28T23:00:15.582Z,66.89
2022-08-28T23:02:44.103Z,67.19
2022-08-28T23:05:12.020Z,67.58
2022-08-28T23:07:40.456Z,68.31
2022-08-28T23:10:09.491Z,69.09
2022-08-28T23:12:37.686Z,69.16
2022-08-28T23:15:10.310Z,69.24
2022-08-28T23:17:38.362Z,69.41
2022-08-28T23:20:11.381Z,69.73
2022-08-28T23:22:39.858Z,69.61
2022-08-28T23:25:08.677Z,69.49
2022-08-28T23:27:36.905Z,69.46
2022-08-28T23:30:07.406Z,69.24
2022-08-28T23:32:35.645Z,69.29
2022-08-28T23:35:07.263Z,69.40
2022-08-28T23:37:37.442Z,69.07
2022-08-28T23:40:14.033Z,68.70
2022-08-28T23:42:42.118Z,68.41
2022-08-28T23:45:11.802Z,68.60
2022-08-28T23:47:40.733Z,68.46
2022-08-28T23:50:12.448Z,68.49
2022-08-28T23:52:40.620Z,68.59
2022-08-28T23:55:09.538Z,68.55
2022-08-28T23:57:37.929Z,68.37
